sensor_id;sensor_type;location;lat;lon;timestamp;P1;durP1;ratioP1;P2;durP2;ratioP2
32976;SDS011;72327;50.842;4.450;2023-09-08T00:02:07;17.20;;;12.07;;
32976;SDS011;72327;50.842;4.450;2023-09-08T00:04:34;16.30;;;11.68;;
32976;SDS011;72327;50.842;4.450;2023-09-08T00:07:00;17.73;;;12.38;;
32976;SDS011;72327;50.842;4.450;2023-09-08T00:09:25;17.23;;;11.65;;
32976;SDS011;72327;50.842;4.450;2023-09-08T00:11:51;18.15;;;10.93;;
32976;SDS011;72327;50.842;4.450;2023-09-08T00:14:19;16.48;;;11.80;;
32976;SDS011;72327;50.842;4.450;2023-09-08T00:16:45;14.50;;;10.52;;
32976;SDS011;72327;50.842;4.450;2023-09-08T00:19:11;23.48;;;11.70;;
32976;SDS011;72327;50.842;4.450;2023-09-08T00:21:36;17.52;;;11.88;;
32976;SDS011;72327;50.842;4.450;2023-09-08T00:24:03;16.20;;;11.48;;
32976;SDS011;72327;50.842;4.450;2023-09-08T00:26:29;15.00;;;11.23;;
32976;SDS011;72327;50.842;4.450;2023-09-08T00:28:55;14.88;;;11.57;;
32976;SDS011;72327;50.842;4.450;2023-09-08T00:31:21;16.95;;;11.57;;
32976;SDS011;72327;50.842;4.450;2023-09-08T00:33:46;21.20;;;12.07;;
32976;SDS011;72327;50.842;4.450;2023-09-08T00:36:12;19.40;;;11.70;;
32976;SDS011;72327;50.842;4.450;2023-09-08T00:38:38;19.40;;;11.88;;
32976;SDS011;72327;50.842;4.450;2023-09-08T00:41:04;23.20;;;12.10;;
32976;SDS011;72327;50.842;4.450;2023-09-08T00:43:30;14.50;;;11.57;;
32976;SDS011;72327;50.842;4.450;2023-09-08T00:45:56;17.65;;;11.52;;
32976;SDS011;72327;50.842;4.450;2023-09-08T00:48:24;17.60;;;11.93;;
32976;SDS011;72327;50.842;4.450;2023-09-08T00:50:50;17.70;;;11.68;;
32976;SDS011;72327;50.842;4.450;2023-09-08T00:53:16;15.50;;;10.93;;
32976;SDS011;72327;50.842;4.450;2023-09-08T00:55:42;16.65;;;11.43;;
32976;SDS011;72327;50.842;4.450;2023-09-08T00:58:07;15.40;;;11.02;;
32976;SDS011;72327;50.842;4.450;2023-09-08T01:00:33;14.30;;;10.52;;
32976;SDS011;72327;50.842;4.450;2023-09-08T01:02:59;14.65;;;10.23;;
32976;SDS011;72327;50.842;4.450;2023-09-08T01:05:25;18.15;;;10.80;;
32976;SDS011;72327;50.842;4.450;2023-09-08T01:07:51;18.38;;;11.27;;
32976;SDS011;72327;50.842;4.450;2023-09-08T01:10:18;14.95;;;10.77;;
32976;SDS011;72327;50.842;4.450;2023-09-08T01:12:44;16.13;;;10.05;;
32976;SDS011;72327;50.842;4.450;2023-09-08T01:15:09;16.35;;;11.07;;
32976;SDS011;72327;50.842;4.450;2023-09-08T01:17:35;16.15;;;10.07;;
32976;SDS011;72327;50.842;4.450;2023-09-08T01:25:33;14.65;;;10.68;;
32976;SDS011;72327;50.842;4.450;2023-09-08T01:28:05;16.02;;;11.38;;
32976;SDS011;72327;50.842;4.450;2023-09-08T01:30:31;13.55;;;9.90;;
32976;SDS011;72327;50.842;4.450;2023-09-08T01:32:58;12.70;;;9.73;;
32976;SDS011;72327;50.842;4.450;2023-09-08T01:35:25;14.98;;;10.02;;
32976;SDS011;72327;50.842;4.450;2023-09-08T01:37:51;14.68;;;10.48;;
32976;SDS011;72327;50.842;4.450;2023-09-08T01:40:16;16.55;;;10.18;;
32976;SDS011;72327;50.842;4.450;2023-09-08T01:42:44;15.20;;;10.90;;
32976;SDS011;72327;50.842;4.450;2023-09-08T01:45:10;15.55;;;10.60;;
32976;SDS011;72327;50.842;4.450;2023-09-08T01:47:36;17.35;;;9.52;;
32976;SDS011;72327;50.842;4.450;2023-09-08T01:50:02;16.33;;;10.05;;
32976;SDS011;72327;50.842;4.450;2023-09-08T01:52:28;22.35;;;10.70;;
32976;SDS011;72327;50.842;4.450;2023-09-08T01:54:54;14.00;;;10.57;;
32976;SDS011;72327;50.842;4.450;2023-09-08T01:57:19;16.10;;;10.38;;
32976;SDS011;72327;50.842;4.450;2023-09-08T01:59:45;16.52;;;10.70;;
32976;SDS011;72327;50.842;4.450;2023-09-08T02:02:11;15.23;;;10.55;;
32976;SDS011;72327;50.842;4.450;2023-09-08T02:04:37;13.52;;;10.43;;
32976;SDS011;72327;50.842;4.450;2023-09-08T02:07:02;13.00;;;9.80;;
32976;SDS011;72327;50.842;4.450;2023-09-08T02:09:33;18.77;;;10.10;;
32976;SDS011;72327;50.842;4.450;2023-09-08T02:12:00;18.75;;;10.82;;
32976;SDS011;72327;50.842;4.450;2023-09-08T02:14:26;16.77;;;10.52;;
32976;SDS011;72327;50.842;4.450;2023-09-08T02:16:53;14.48;;;10.43;;
32976;SDS011;72327;50.842;4.450;2023-09-08T02:19:19;15.68;;;10.77;;
32976;SDS011;72327;50.842;4.450;2023-09-08T02:21:44;14.90;;;9.90;;
32976;SDS011;72327;50.842;4.450;2023-09-08T02:24:10;17.33;;;10.55;;
32976;SDS011;72327;50.842;4.450;2023-09-08T02:26:38;12.82;;;9.82;;
32976;SDS011;72327;50.842;4.450;2023-09-08T02:29:04;14.52;;;10.13;;
32976;SDS011;72327;50.842;4.450;2023-09-08T02:31:30;16.52;;;10.02;;
32976;SDS011;72327;50.842;4.450;2023-09-08T02:33:55;16.27;;;10.65;;
32976;SDS011;72327;50.842;4.450;2023-09-08T02:36:21;14.45;;;10.35;;
32976;SDS011;72327;50.842;4.450;2023-09-08T02:38:51;12.53;;;10.50;;
32976;SDS011;72327;50.842;4.450;2023-09-08T02:41:17;19.17;;;11.25;;
32976;SDS011;72327;50.842;4.450;2023-09-08T02:43:42;14.68;;;11.13;;
32976;SDS011;72327;50.842;4.450;2023-09-08T02:46:08;14.38;;;10.10;;
32976;SDS011;72327;50.842;4.450;2023-09-08T02:48:34;17.63;;;10.07;;
32976;SDS011;72327;50.842;4.450;2023-09-08T02:51:01;14.50;;;10.70;;
32976;SDS011;72327;50.842;4.450;2023-09-08T02:53:27;17.67;;;10.60;;
32976;SDS011;72327;50.842;4.450;2023-09-08T02:55:59;15.75;;;11.02;;
32976;SDS011;72327;50.842;4.450;2023-09-08T02:58:25;18.50;;;10.20;;
32976;SDS011;72327;50.842;4.450;2023-09-08T03:00:51;16.70;;;11.55;;
32976;SDS011;72327;50.842;4.450;2023-09-08T03:03:18;14.63;;;11.52;;
32976;SDS011;72327;50.842;4.450;2023-09-08T03:05:44;13.95;;;11.35;;
32976;SDS011;72327;50.842;4.450;2023-09-08T03:08:10;17.27;;;11.18;;
32976;SDS011;72327;50.842;4.450;2023-09-08T03:10:36;17.48;;;10.98;;
32976;SDS011;72327;50.842;4.450;2023-09-08T03:13:02;19.08;;;11.57;;
32976;SDS011;72327;50.842;4.450;2023-09-08T03:15:30;14.70;;;10.80;;
32976;SDS011;72327;50.842;4.450;2023-09-08T03:17:57;18.52;;;11.95;;
32976;SDS011;72327;50.842;4.450;2023-09-08T03:20:26;15.20;;;11.13;;
32976;SDS011;72327;50.842;4.450;2023-09-08T03:22:53;17.05;;;11.05;;
32976;SDS011;72327;50.842;4.450;2023-09-08T03:25:20;16.50;;;11.32;;
32976;SDS011;72327;50.842;4.450;2023-09-08T03:27:46;14.77;;;11.55;;
32976;SDS011;72327;50.842;4.450;2023-09-08T03:30:11;15.75;;;11.30;;
32976;SDS011;72327;50.842;4.450;2023-09-08T03:32:37;16.48;;;11.25;;
32976;SDS011;72327;50.842;4.450;2023-09-08T03:35:03;27.70;;;12.95;;
32976;SDS011;72327;50.842;4.450;2023-09-08T03:37:32;15.43;;;11.00;;
32976;SDS011;72327;50.842;4.450;2023-09-08T03:40:01;18.17;;;12.15;;
32976;SDS011;72327;50.842;4.450;2023-09-08T03:42:28;19.70;;;12.93;;
32976;SDS011;72327;50.842;4.450;2023-09-08T03:44:53;19.10;;;12.88;;
32976;SDS011;72327;50.842;4.450;2023-09-08T03:47:19;15.90;;;12.95;;
32976;SDS011;72327;50.842;4.450;2023-09-08T03:49:44;15.77;;;12.43;;
32976;SDS011;72327;50.842;4.450;2023-09-08T03:52:10;18.30;;;12.82;;
32976;SDS011;72327;50.842;4.450;2023-09-08T03:54:37;14.73;;;12.07;;
32976;SDS011;72327;50.842;4.450;2023-09-08T03:57:03;15.27;;;12.48;;
32976;SDS011;72327;50.842;4.450;2023-09-08T03:59:29;16.50;;;12.63;;
32976;SDS011;72327;50.842;4.450;2023-09-08T04:01:54;15.68;;;13.13;;
32976;SDS011;72327;50.842;4.450;2023-09-08T04:04:20;16.85;;;13.13;;
32976;SDS011;72327;50.842;4.450;2023-09-08T04:06:46;19.70;;;13.07;;
32976;SDS011;72327;50.842;4.450;2023-09-08T04:09:11;20.92;;;13.18;;
32976;SDS011;72327;50.842;4.450;2023-09-08T04:11:37;23.40;;;13.38;;
32976;SDS011;72327;50.842;4.450;2023-09-08T04:14:02;18.88;;;13.00;;
32976;SDS011;72327;50.842;4.450;2023-09-08T04:16:28;19.17;;;12.90;;
32976;SDS011;72327;50.842;4.450;2023-09-08T04:18:54;16.70;;;13.00;;
32976;SDS011;72327;50.842;4.450;2023-09-08T04:21:20;18.17;;;12.55;;
32976;SDS011;72327;50.842;4.450;2023-09-08T04:23:45;17.98;;;12.73;;
32976;SDS011;72327;50.842;4.450;2023-09-08T04:26:11;20.35;;;13.30;;
32976;SDS011;72327;50.842;4.450;2023-09-08T04:28:37;22.50;;;13.15;;
32976;SDS011;72327;50.842;4.450;2023-09-08T04:31:03;20.98;;;13.85;;
32976;SDS011;72327;50.842;4.450;2023-09-08T04:33:29;24.73;;;14.13;;
32976;SDS011;72327;50.842;4.450;2023-09-08T04:35:55;22.17;;;14.45;;
32976;SDS011;72327;50.842;4.450;2023-09-08T04:38:20;21.27;;;14.85;;
32976;SDS011;72327;50.842;4.450;2023-09-08T04:40:46;21.67;;;13.63;;
32976;SDS011;72327;50.842;4.450;2023-09-08T04:43:12;20.40;;;13.95;;
32976;SDS011;72327;50.842;4.450;2023-09-08T04:45:37;22.25;;;13.43;;
32976;SDS011;72327;50.842;4.450;2023-09-08T04:48:04;20.20;;;13.88;;
32976;SDS011;72327;50.842;4.450;2023-09-08T04:50:30;20.35;;;14.10;;
32976;SDS011;72327;50.842;4.450;2023-09-08T04:52:56;24.70;;;13.32;;
32976;SDS011;72327;50.842;4.450;2023-09-08T04:55:21;27.63;;;13.55;;
32976;SDS011;72327;50.842;4.450;2023-09-08T04:57:47;38.88;;;16.15;;
32976;SDS011;72327;50.842;4.450;2023-09-08T05:00:13;32.28;;;14.55;;
32976;SDS011;72327;50.842;4.450;2023-09-08T05:02:40;28.40;;;14.13;;
32976;SDS011;72327;50.842;4.450;2023-09-08T05:05:05;22.67;;;13.80;;
32976;SDS011;72327;50.842;4.450;2023-09-08T05:07:31;44.70;;;16.15;;
32976;SDS011;72327;50.842;4.450;2023-09-08T05:09:57;32.58;;;16.00;;
32976;SDS011;72327;50.842;4.450;2023-09-08T05:12:22;41.88;;;16.13;;
32976;SDS011;72327;50.842;4.450;2023-09-08T05:14:48;73.30;;;17.63;;
32976;SDS011;72327;50.842;4.450;2023-09-08T05:17:14;32.83;;;15.63;;
32976;SDS011;72327;50.842;4.450;2023-09-08T05:19:39;23.27;;;14.77;;
32976;SDS011;72327;50.842;4.450;2023-09-08T05:22:05;19.38;;;14.32;;
32976;SDS011;72327;50.842;4.450;2023-09-08T05:24:34;20.17;;;14.60;;
32976;SDS011;72327;50.842;4.450;2023-09-08T05:26:59;19.35;;;14.10;;
32976;SDS011;72327;50.842;4.450;2023-09-08T05:29:25;42.80;;;18.30;;
32976;SDS011;72327;50.842;4.450;2023-09-08T05:31:51;34.53;;;17.13;;
32976;SDS011;72327;50.842;4.450;2023-09-08T05:34:17;27.00;;;14.43;;
32976;SDS011;72327;50.842;4.450;2023-09-08T05:36:42;64.18;;;16.55;;
32976;SDS011;72327;50.842;4.450;2023-09-08T05:39:08;30.83;;;14.93;;
32976;SDS011;72327;50.842;4.450;2023-09-08T05:41:35;31.23;;;14.48;;
32976;SDS011;72327;50.842;4.450;2023-09-08T05:44:01;32.38;;;14.10;;
32976;SDS011;72327;50.842;4.450;2023-09-08T05:46:26;28.77;;;13.18;;
32976;SDS011;72327;50.842;4.450;2023-09-08T05:48:52;36.83;;;13.98;;
32976;SDS011;72327;50.842;4.450;2023-09-08T05:51:18;20.92;;;13.30;;
32976;SDS011;72327;50.842;4.450;2023-09-08T05:53:44;21.88;;;11.88;;
32976;SDS011;72327;50.842;4.450;2023-09-08T05:56:09;30.80;;;14.10;;
32976;SDS011;72327;50.842;4.450;2023-09-08T05:58:35;47.30;;;14.55;;
32976;SDS011;72327;50.842;4.450;2023-09-08T06:01:01;33.80;;;13.90;;
32976;SDS011;72327;50.842;4.450;2023-09-08T06:03:27;22.92;;;13.45;;
32976;SDS011;72327;50.842;4.450;2023-09-08T06:05:53;19.38;;;12.88;;
32976;SDS011;72327;50.842;4.450;2023-09-08T06:08:19;18.38;;;12.57;;
32976;SDS011;72327;50.842;4.450;2023-09-08T06:10:44;43.60;;;14.13;;
32976;SDS011;72327;50.842;4.450;2023-09-08T06:13:10;41.30;;;13.23;;
32976;SDS011;72327;50.842;4.450;2023-09-08T06:15:36;25.40;;;11.93;;
32976;SDS011;72327;50.842;4.450;2023-09-08T06:18:01;61.97;;;14.38;;
32976;SDS011;72327;50.842;4.450;2023-09-08T06:20:27;26.25;;;12.57;;
32976;SDS011;72327;50.842;4.450;2023-09-08T06:22:53;19.48;;;11.90;;
32976;SDS011;72327;50.842;4.450;2023-09-08T06:25:19;33.72;;;14.68;;
32976;SDS011;72327;50.842;4.450;2023-09-08T06:27:45;22.85;;;12.10;;
32976;SDS011;72327;50.842;4.450;2023-09-08T06:30:11;33.88;;;12.30;;
32976;SDS011;72327;50.842;4.450;2023-09-08T06:32:38;49.70;;;13.98;;
32976;SDS011;72327;50.842;4.450;2023-09-08T06:35:04;46.50;;;12.38;;
32976;SDS011;72327;50.842;4.450;2023-09-08T06:37:34;21.15;;;11.25;;
32976;SDS011;72327;50.842;4.450;2023-09-08T06:40:01;27.05;;;10.55;;
32976;SDS011;72327;50.842;4.450;2023-09-08T06:42:27;28.10;;;11.25;;
32976;SDS011;72327;50.842;4.450;2023-09-08T06:44:53;42.92;;;10.93;;
32976;SDS011;72327;50.842;4.450;2023-09-08T06:47:18;34.15;;;11.00;;
32976;SDS011;72327;50.842;4.450;2023-09-08T06:49:44;22.20;;;9.68;;
32976;SDS011;72327;50.842;4.450;2023-09-08T06:52:10;14.00;;;9.80;;
32976;SDS011;72327;50.842;4.450;2023-09-08T06:54:35;19.25;;;9.57;;
32976;SDS011;72327;50.842;4.450;2023-09-08T06:57:01;23.50;;;9.15;;
32976;SDS011;72327;50.842;4.450;2023-09-08T06:59:27;23.92;;;9.95;;
32976;SDS011;72327;50.842;4.450;2023-09-08T07:01:52;17.33;;;9.07;;
32976;SDS011;72327;50.842;4.450;2023-09-08T07:04:18;27.65;;;9.73;;
32976;SDS011;72327;50.842;4.450;2023-09-08T07:06:44;15.73;;;8.90;;
32976;SDS011;72327;50.842;4.450;2023-09-08T07:09:11;15.60;;;8.75;;
32976;SDS011;72327;50.842;4.450;2023-09-08T07:11:37;20.25;;;9.02;;
32976;SDS011;72327;50.842;4.450;2023-09-08T07:14:02;21.48;;;8.95;;
32976;SDS011;72327;50.842;4.450;2023-09-08T07:16:28;17.45;;;8.88;;
32976;SDS011;72327;50.842;4.450;2023-09-08T07:18:54;21.58;;;8.27;;
32976;SDS011;72327;50.842;4.450;2023-09-08T07:21:19;13.13;;;8.10;;
32976;SDS011;72327;50.842;4.450;2023-09-08T07:23:45;12.88;;;8.07;;
32976;SDS011;72327;50.842;4.450;2023-09-08T07:26:11;16.52;;;8.68;;
32976;SDS011;72327;50.842;4.450;2023-09-08T07:28:37;11.63;;;7.80;;
32976;SDS011;72327;50.842;4.450;2023-09-08T07:31:05;13.60;;;8.30;;
32976;SDS011;72327;50.842;4.450;2023-09-08T07:33:34;15.30;;;8.95;;
32976;SDS011;72327;50.842;4.450;2023-09-08T07:36:03;12.73;;;9.20;;
32976;SDS011;72327;50.842;4.450;2023-09-08T07:38:30;13.63;;;7.85;;
32976;SDS011;72327;50.842;4.450;2023-09-08T07:40:56;18.40;;;8.85;;
32976;SDS011;72327;50.842;4.450;2023-09-08T07:43:22;10.00;;;8.00;;
32976;SDS011;72327;50.842;4.450;2023-09-08T07:45:47;14.93;;;9.35;;
32976;SDS011;72327;50.842;4.450;2023-09-08T07:48:13;16.63;;;8.30;;
32976;SDS011;72327;50.842;4.450;2023-09-08T07:50:39;16.25;;;8.30;;
32976;SDS011;72327;50.842;4.450;2023-09-08T07:53:04;14.60;;;7.63;;
32976;SDS011;72327;50.842;4.450;2023-09-08T07:55:30;19.55;;;8.75;;
32976;SDS011;72327;50.842;4.450;2023-09-08T07:57:57;11.75;;;8.73;;
32976;SDS011;72327;50.842;4.450;2023-09-08T08:00:23;14.63;;;8.38;;
32976;SDS011;72327;50.842;4.450;2023-09-08T08:02:50;22.17;;;8.30;;
32976;SDS011;72327;50.842;4.450;2023-09-08T08:05:18;17.60;;;8.60;;
32976;SDS011;72327;50.842;4.450;2023-09-08T08:07:44;13.23;;;7.25;;
32976;SDS011;72327;50.842;4.450;2023-09-08T08:10:10;23.27;;;8.70;;
32976;SDS011;72327;50.842;4.450;2023-09-08T08:12:36;21.35;;;9.32;;
32976;SDS011;72327;50.842;4.450;2023-09-08T08:15:02;15.30;;;8.25;;
32976;SDS011;72327;50.842;4.450;2023-09-08T08:17:29;16.08;;;7.65;;
32976;SDS011;72327;50.842;4.450;2023-09-08T08:19:56;39.72;;;9.20;;
32976;SDS011;72327;50.842;4.450;2023-09-08T08:22:31;19.15;;;7.93;;
32976;SDS011;72327;50.842;4.450;2023-09-08T08:24:58;10.57;;;7.55;;
32976;SDS011;72327;50.842;4.450;2023-09-08T08:27:23;13.73;;;7.60;;
32976;SDS011;72327;50.842;4.450;2023-09-08T08:29:49;15.45;;;7.85;;
32976;SDS011;72327;50.842;4.450;2023-09-08T08:32:16;13.93;;;7.45;;
32976;SDS011;72327;50.842;4.450;2023-09-08T08:34:42;16.52;;;7.45;;
32976;SDS011;72327;50.842;4.450;2023-09-08T08:37:07;13.88;;;7.18;;
32976;SDS011;72327;50.842;4.450;2023-09-08T08:39:33;14.55;;;7.40;;
32976;SDS011;72327;50.842;4.450;2023-09-08T08:42:05;17.80;;;7.35;;
32976;SDS011;72327;50.842;4.450;2023-09-08T08:44:32;12.70;;;7.28;;
32976;SDS011;72327;50.842;4.450;2023-09-08T08:46:58;19.20;;;6.70;;
32976;SDS011;72327;50.842;4.450;2023-09-08T08:49:26;12.75;;;7.03;;
32976;SDS011;72327;50.842;4.450;2023-09-08T08:51:53;17.88;;;7.63;;
32976;SDS011;72327;50.842;4.450;2023-09-08T08:54:19;21.27;;;8.38;;
32976;SDS011;72327;50.842;4.450;2023-09-08T08:56:45;14.57;;;7.15;;
32976;SDS011;72327;50.842;4.450;2023-09-08T08:59:11;17.65;;;7.50;;
32976;SDS011;72327;50.842;4.450;2023-09-08T09:01:38;18.65;;;7.45;;
32976;SDS011;72327;50.842;4.450;2023-09-08T09:04:06;19.40;;;7.22;;
32976;SDS011;72327;50.842;4.450;2023-09-08T09:06:33;19.83;;;7.13;;
32976;SDS011;72327;50.842;4.450;2023-09-08T09:08:59;15.15;;;7.13;;
32976;SDS011;72327;50.842;4.450;2023-09-08T09:11:25;22.85;;;6.60;;
32976;SDS011;72327;50.842;4.450;2023-09-08T09:13:51;13.80;;;6.75;;
32976;SDS011;72327;50.842;4.450;2023-09-08T09:16:17;16.65;;;6.90;;
32976;SDS011;72327;50.842;4.450;2023-09-08T09:18:52;12.65;;;6.50;;
32976;SDS011;72327;50.842;4.450;2023-09-08T09:21:20;18.63;;;7.40;;
32976;SDS011;72327;50.842;4.450;2023-09-08T09:23:45;19.58;;;6.97;;
32976;SDS011;72327;50.842;4.450;2023-09-08T09:26:11;20.80;;;6.25;;
32976;SDS011;72327;50.842;4.450;2023-09-08T09:28:48;16.02;;;6.35;;
32976;SDS011;72327;50.842;4.450;2023-09-08T09:31:17;15.43;;;6.45;;
32976;SDS011;72327;50.842;4.450;2023-09-08T09:33:43;15.95;;;6.97;;
32976;SDS011;72327;50.842;4.450;2023-09-08T09:36:09;16.92;;;6.43;;
32976;SDS011;72327;50.842;4.450;2023-09-08T09:38:34;12.50;;;5.85;;
32976;SDS011;72327;50.842;4.450;2023-09-08T09:41:00;9.90;;;7.20;;
32976;SDS011;72327;50.842;4.450;2023-09-08T09:43:27;11.85;;;6.47;;
32976;SDS011;72327;50.842;4.450;2023-09-08T09:45:54;15.18;;;6.05;;
32976;SDS011;72327;50.842;4.450;2023-09-08T09:48:22;17.90;;;7.38;;
32976;SDS011;72327;50.842;4.450;2023-09-08T09:50:49;12.05;;;6.60;;
32976;SDS011;72327;50.842;4.450;2023-09-08T09:53:15;10.50;;;6.60;;
32976;SDS011;72327;50.842;4.450;2023-09-08T09:55:43;14.50;;;6.20;;
32976;SDS011;72327;50.842;4.450;2023-09-08T09:58:09;12.38;;;6.53;;
32976;SDS011;72327;50.842;4.450;2023-09-08T10:00:36;15.50;;;7.00;;
32976;SDS011;72327;50.842;4.450;2023-09-08T10:03:03;17.17;;;7.18;;
32976;SDS011;72327;50.842;4.450;2023-09-08T10:05:29;12.30;;;6.70;;
32976;SDS011;72327;50.842;4.450;2023-09-08T10:07:55;10.52;;;6.82;;
32976;SDS011;72327;50.842;4.450;2023-09-08T10:10:21;13.25;;;5.78;;
32976;SDS011;72327;50.842;4.450;2023-09-08T10:12:55;17.08;;;6.00;;
32976;SDS011;72327;50.842;4.450;2023-09-08T10:15:25;13.70;;;5.95;;
32976;SDS011;72327;50.842;4.450;2023-09-08T10:17:55;16.13;;;6.13;;
32976;SDS011;72327;50.842;4.450;2023-09-08T10:20:26;11.20;;;5.65;;
32976;SDS011;72327;50.842;4.450;2023-09-08T10:23:00;14.77;;;5.65;;
32976;SDS011;72327;50.842;4.450;2023-09-08T10:25:34;21.23;;;6.97;;
32976;SDS011;72327;50.842;4.450;2023-09-08T10:28:04;11.75;;;6.38;;
32976;SDS011;72327;50.842;4.450;2023-09-08T10:30:32;12.88;;;6.03;;
32976;SDS011;72327;50.842;4.450;2023-09-08T10:32:59;9.60;;;5.72;;
32976;SDS011;72327;50.842;4.450;2023-09-08T10:35:26;8.38;;;5.63;;
32976;SDS011;72327;50.842;4.450;2023-09-08T10:38:16;14.38;;;5.80;;
32976;SDS011;72327;50.842;4.450;2023-09-08T10:46:20;9.50;;;5.35;;
32976;SDS011;72327;50.842;4.450;2023-09-08T10:48:47;12.63;;;6.18;;
32976;SDS011;72327;50.842;4.450;2023-09-08T10:51:13;9.32;;;5.55;;
32976;SDS011;72327;50.842;4.450;2023-09-08T10:53:40;12.15;;;5.30;;
32976;SDS011;72327;50.842;4.450;2023-09-08T10:56:06;12.25;;;5.18;;
32976;SDS011;72327;50.842;4.450;2023-09-08T10:58:32;17.20;;;6.00;;
32976;SDS011;72327;50.842;4.450;2023-09-08T11:01:02;17.05;;;5.35;;
32976;SDS011;72327;50.842;4.450;2023-09-08T11:06:07;25.27;;;6.32;;
32976;SDS011;72327;50.842;4.450;2023-09-08T11:08:41;15.25;;;5.55;;
32976;SDS011;72327;50.842;4.450;2023-09-08T11:11:10;11.60;;;5.30;;
32976;SDS011;72327;50.842;4.450;2023-09-08T11:13:37;12.45;;;5.65;;
32976;SDS011;72327;50.842;4.450;2023-09-08T11:16:04;8.85;;;4.75;;
32976;SDS011;72327;50.842;4.450;2023-09-08T11:18:31;10.05;;;4.60;;
32976;SDS011;72327;50.842;4.450;2023-09-08T11:20:59;8.52;;;4.47;;
32976;SDS011;72327;50.842;4.450;2023-09-08T11:23:27;8.00;;;4.35;;
32976;SDS011;72327;50.842;4.450;2023-09-08T11:25:53;11.48;;;4.43;;
32976;SDS011;72327;50.842;4.450;2023-09-08T11:28:22;9.05;;;4.13;;
32976;SDS011;72327;50.842;4.450;2023-09-08T11:30:48;13.77;;;4.65;;
32976;SDS011;72327;50.842;4.450;2023-09-08T11:33:14;11.80;;;4.47;;
32976;SDS011;72327;50.842;4.450;2023-09-08T11:35:41;9.10;;;3.97;;
32976;SDS011;72327;50.842;4.450;2023-09-08T11:38:09;13.00;;;3.25;;
32976;SDS011;72327;50.842;4.450;2023-09-08T11:40:36;7.93;;;3.67;;
32976;SDS011;72327;50.842;4.450;2023-09-08T11:43:02;22.60;;;4.72;;
32976;SDS011;72327;50.842;4.450;2023-09-08T11:45:28;10.50;;;4.05;;
32976;SDS011;72327;50.842;4.450;2023-09-08T11:47:56;14.00;;;4.60;;
32976;SDS011;72327;50.842;4.450;2023-09-08T11:50:22;23.73;;;5.00;;
32976;SDS011;72327;50.842;4.450;2023-09-08T11:52:52;13.68;;;4.00;;
32976;SDS011;72327;50.842;4.450;2023-09-08T11:55:19;19.13;;;4.88;;
32976;SDS011;72327;50.842;4.450;2023-09-08T11:57:47;13.90;;;4.45;;
32976;SDS011;72327;50.842;4.450;2023-09-08T12:00:15;9.82;;;3.80;;
32976;SDS011;72327;50.842;4.450;2023-09-08T12:02:43;13.23;;;3.83;;
32976;SDS011;72327;50.842;4.450;2023-09-08T12:05:26;12.50;;;4.13;;
32976;SDS011;72327;50.842;4.450;2023-09-08T12:07:53;12.27;;;3.90;;
32976;SDS011;72327;50.842;4.450;2023-09-08T12:10:20;17.20;;;4.03;;
32976;SDS011;72327;50.842;4.450;2023-09-08T12:12:50;14.02;;;4.40;;
32976;SDS011;72327;50.842;4.450;2023-09-08T12:15:29;13.40;;;3.65;;
32976;SDS011;72327;50.842;4.450;2023-09-08T12:17:59;12.07;;;3.95;;
32976;SDS011;72327;50.842;4.450;2023-09-08T12:20:32;15.25;;;4.28;;
32976;SDS011;72327;50.842;4.450;2023-09-08T12:23:03;12.90;;;4.57;;
32976;SDS011;72327;50.842;4.450;2023-09-08T12:25:30;13.60;;;4.22;;
32976;SDS011;72327;50.842;4.450;2023-09-08T12:27:57;12.80;;;4.28;;
32976;SDS011;72327;50.842;4.450;2023-09-08T12:30:23;12.35;;;3.75;;
32976;SDS011;72327;50.842;4.450;2023-09-08T12:32:55;11.68;;;4.05;;
32976;SDS011;72327;50.842;4.450;2023-09-08T12:35:22;10.75;;;4.28;;
32976;SDS011;72327;50.842;4.450;2023-09-08T12:40:26;12.65;;;4.40;;
32976;SDS011;72327;50.842;4.450;2023-09-08T12:42:53;11.35;;;4.13;;
32976;SDS011;72327;50.842;4.450;2023-09-08T12:45:22;10.43;;;4.63;;
32976;SDS011;72327;50.842;4.450;2023-09-08T12:47:48;14.73;;;4.53;;
32976;SDS011;72327;50.842;4.450;2023-09-08T12:50:14;16.52;;;4.45;;
32976;SDS011;72327;50.842;4.450;2023-09-08T12:52:40;20.52;;;4.65;;
32976;SDS011;72327;50.842;4.450;2023-09-08T12:55:06;17.38;;;4.95;;
32976;SDS011;72327;50.842;4.450;2023-09-08T12:57:32;17.00;;;5.07;;
32976;SDS011;72327;50.842;4.450;2023-09-08T12:59:59;15.52;;;4.60;;
32976;SDS011;72327;50.842;4.450;2023-09-08T13:02:25;14.73;;;4.68;;
32976;SDS011;72327;50.842;4.450;2023-09-08T13:04:51;10.98;;;4.78;;
32976;SDS011;72327;50.842;4.450;2023-09-08T13:07:17;11.68;;;4.65;;
32976;SDS011;72327;50.842;4.450;2023-09-08T13:09:43;15.38;;;4.45;;
32976;SDS011;72327;50.842;4.450;2023-09-08T13:12:09;15.75;;;4.57;;
32976;SDS011;72327;50.842;4.450;2023-09-08T13:14:37;26.83;;;4.93;;
32976;SDS011;72327;50.842;4.450;2023-09-08T13:17:03;18.75;;;4.20;;
32976;SDS011;72327;50.842;4.450;2023-09-08T13:19:29;21.00;;;5.63;;
32976;SDS011;72327;50.842;4.450;2023-09-08T13:21:55;16.90;;;4.70;;
32976;SDS011;72327;50.842;4.450;2023-09-08T13:24:21;18.58;;;3.58;;
32976;SDS011;72327;50.842;4.450;2023-09-08T13:26:47;16.92;;;5.10;;
32976;SDS011;72327;50.842;4.450;2023-09-08T13:29:13;25.48;;;4.43;;
32976;SDS011;72327;50.842;4.450;2023-09-08T13:31:39;13.77;;;4.07;;
32976;SDS011;72327;50.842;4.450;2023-09-08T13:34:04;19.65;;;4.60;;
32976;SDS011;72327;50.842;4.450;2023-09-08T13:36:30;22.92;;;4.40;;
32976;SDS011;72327;50.842;4.450;2023-09-08T13:38:56;21.00;;;4.45;;
32976;SDS011;72327;50.842;4.450;2023-09-08T13:41:23;22.83;;;5.13;;
32976;SDS011;72327;50.842;4.450;2023-09-08T13:43:49;23.92;;;5.15;;
32976;SDS011;72327;50.842;4.450;2023-09-08T13:46:14;26.30;;;4.78;;
32976;SDS011;72327;50.842;4.450;2023-09-08T13:48:40;22.55;;;4.82;;
32976;SDS011;72327;50.842;4.450;2023-09-08T13:51:06;15.95;;;5.00;;
32976;SDS011;72327;50.842;4.450;2023-09-08T13:53:31;17.63;;;4.57;;
32976;SDS011;72327;50.842;4.450;2023-09-08T13:55:57;28.90;;;4.88;;
32976;SDS011;72327;50.842;4.450;2023-09-08T13:58:22;30.02;;;6.40;;
32976;SDS011;72327;50.842;4.450;2023-09-08T14:00:48;32.33;;;5.05;;
32976;SDS011;72327;50.842;4.450;2023-09-08T14:03:14;21.40;;;4.97;;
32976;SDS011;72327;50.842;4.450;2023-09-08T14:05:41;25.83;;;4.63;;
32976;SDS011;72327;50.842;4.450;2023-09-08T14:08:07;20.48;;;4.65;;
32976;SDS011;72327;50.842;4.450;2023-09-08T14:10:32;18.13;;;5.47;;
32976;SDS011;72327;50.842;4.450;2023-09-08T14:12:58;26.88;;;4.90;;
32976;SDS011;72327;50.842;4.450;2023-09-08T14:15:24;17.08;;;4.22;;
32976;SDS011;72327;50.842;4.450;2023-09-08T14:17:50;24.02;;;5.07;;
32976;SDS011;72327;50.842;4.450;2023-09-08T14:20:15;29.40;;;6.05;;
32976;SDS011;72327;50.842;4.450;2023-09-08T14:22:41;20.60;;;5.13;;
32976;SDS011;72327;50.842;4.450;2023-09-08T14:25:07;22.98;;;5.18;;
32976;SDS011;72327;50.842;4.450;2023-09-08T14:27:33;27.55;;;5.43;;
32976;SDS011;72327;50.842;4.450;2023-09-08T14:30:00;16.20;;;4.47;;
32976;SDS011;72327;50.842;4.450;2023-09-08T14:32:26;21.38;;;5.00;;
32976;SDS011;72327;50.842;4.450;2023-09-08T14:34:52;31.10;;;5.05;;
32976;SDS011;72327;50.842;4.450;2023-09-08T14:37:17;16.45;;;4.90;;
32976;SDS011;72327;50.842;4.450;2023-09-08T14:39:43;20.77;;;5.75;;
32976;SDS011;72327;50.842;4.450;2023-09-08T14:42:08;23.33;;;5.00;;